createdAt,value
2018-07-27T00:01:45.703Z,18.80
2018-07-27T00:04:14.009Z,18.80
2018-07-27T00:06:42.279Z,18.80
2018-07-27T00:09:12.434Z,18.70
2018-07-27T00:11:41.153Z,18.40
2018-07-27T00:14:09.451Z,18.40
2018-07-27T00:16:37.930Z,18.40
2018-07-27T00:21:34.755Z,18.40
2018-07-27T00:24:03.053Z,18.20
2018-07-27T00:26:31.379Z,18.10
2018-07-27T00:28:59.646Z,18.00
2018-07-27T00:31:27.921Z,17.90
2018-07-27T00:36:47.015Z,18.00
2018-07-27T00:39:15.295Z,18.20
2018-07-27T00:41:43.588Z,18.30
2018-07-27T00:44:11.860Z,18.30
2018-07-27T00:46:40.140Z,18.20
2018-07-27T00:49:08.419Z,18.20
2018-07-27T00:51:36.690Z,18.10
2018-07-27T00:54:05.095Z,17.90
2018-07-27T00:56:33.395Z,17.70
2018-07-27T00:59:01.667Z,17.80
2018-07-27T01:01:29.934Z,17.50
2018-07-27T01:03:58.367Z,17.40
2018-07-27T01:06:26.704Z,17.50
2018-07-27T01:08:54.991Z,17.60
2018-07-27T01:11:23.262Z,17.60
2018-07-27T01:13:51.701Z,17.60
2018-07-27T01:16:19.999Z,17.60
2018-07-27T01:18:48.280Z,17.70
2018-07-27T01:21:18.372Z,17.60
2018-07-27T01:23:46.656Z,17.60
2018-07-27T01:26:14.930Z,17.70
2018-07-27T01:28:43.258Z,17.70
2018-07-27T01:31:11.546Z,17.70
2018-07-27T01:33:39.859Z,17.70
2018-07-27T01:36:08.140Z,17.70
2018-07-27T01:38:36.419Z,17.70
2018-07-27T01:41:04.760Z,17.70
2018-07-27T01:43:33.298Z,17.70
2018-07-27T01:46:01.582Z,17.70
2018-07-27T01:48:29.856Z,17.60
2018-07-27T01:50:58.186Z,17.60
2018-07-27T01:53:26.486Z,17.60
2018-07-27T01:55:54.820Z,17.60
2018-07-27T01:58:23.105Z,17.60
2018-07-27T02:00:51.402Z,17.50
2018-07-27T02:05:47.774Z,17.40
2018-07-27T02:08:16.051Z,17.30
2018-07-27T02:10:44.343Z,17.30
2018-07-27T02:13:12.655Z,17.30
2018-07-27T02:15:41.482Z,17.20
2018-07-27T02:18:09.774Z,17.30
2018-07-27T02:20:38.082Z,17.10
2018-07-27T02:23:06.415Z,16.90
2018-07-27T02:25:34.682Z,17.00
2018-07-27T02:28:03.123Z,17.00
2018-07-27T02:30:31.398Z,17.10
2018-07-27T02:32:59.685Z,17.10
2018-07-27T02:35:27.968Z,17.00
2018-07-27T02:37:56.363Z,17.00
2018-07-27T02:40:24.647Z,16.90
2018-07-27T02:42:52.918Z,17.00
2018-07-27T02:45:21.190Z,16.90
2018-07-27T02:47:50.199Z,16.90
2018-07-27T02:50:19.633Z,16.70
2018-07-27T02:52:47.947Z,16.50
2018-07-27T02:55:16.347Z,16.30
2018-07-27T02:57:44.619Z,16.20
2018-07-27T03:00:12.890Z,16.20
2018-07-27T03:02:41.179Z,16.10
2018-07-27T03:05:09.494Z,16.10
2018-07-27T03:07:37.867Z,16.00
2018-07-27T03:10:06.651Z,15.90
2018-07-27T03:12:34.963Z,15.90
2018-07-27T03:15:03.294Z,15.80
2018-07-27T03:17:31.548Z,15.80
2018-07-27T03:19:59.808Z,15.70
2018-07-27T03:22:28.063Z,15.70
2018-07-27T03:24:56.317Z,15.70
2018-07-27T03:27:24.595Z,15.60
2018-07-27T03:29:52.931Z,15.70
2018-07-27T03:32:21.192Z,15.80
2018-07-27T03:34:49.449Z,16.10
2018-07-27T03:37:17.709Z,16.10
2018-07-27T03:42:14.097Z,16.30
2018-07-27T03:44:42.253Z,16.30
2018-07-27T03:47:10.517Z,16.30
2018-07-27T03:49:38.869Z,16.30
2018-07-27T03:52:07.159Z,16.40
2018-07-27T03:54:35.435Z,16.40
2018-07-27T03:57:03.691Z,16.20
2018-07-27T03:59:31.943Z,16.00
2018-07-27T04:02:00.293Z,16.00
2018-07-27T04:04:28.549Z,16.10
2018-07-27T04:06:56.843Z,16.00
2018-07-27T04:11:53.231Z,16.20
2018-07-27T04:14:21.547Z,16.20
2018-07-27T04:19:22.630Z,16.10
2018-07-27T04:21:50.876Z,16.20
2018-07-27T04:24:19.128Z,16.20
2018-07-27T04:26:47.450Z,16.30
2018-07-27T04:29:16.446Z,16.30
2018-07-27T04:31:44.723Z,16.40
2018-07-27T04:34:12.975Z,16.50
2018-07-27T04:36:41.219Z,16.50
2018-07-27T04:39:10.626Z,16.40
2018-07-27T04:41:38.986Z,16.20
2018-07-27T04:44:07.340Z,16.20
2018-07-27T04:46:35.635Z,16.30
2018-07-27T04:49:03.904Z,16.40
2018-07-27T04:51:32.372Z,16.40
2018-07-27T04:54:00.626Z,16.60
2018-07-27T04:56:33.910Z,16.60
2018-07-27T04:59:02.241Z,16.70
2018-07-27T05:01:30.529Z,16.90
2018-07-27T05:03:59.002Z,16.90
2018-07-27T05:06:27.262Z,17.00
2018-07-27T05:09:01.057Z,17.20
2018-07-27T05:11:29.448Z,17.30
2018-07-27T05:16:25.738Z,17.40
2018-07-27T05:18:54.037Z,17.50
2018-07-27T05:21:22.318Z,17.50
2018-07-27T05:23:50.617Z,17.60
2018-07-27T05:28:46.926Z,17.80
2018-07-27T05:31:15.191Z,17.90
2018-07-27T05:33:43.459Z,17.90
2018-07-27T05:36:11.735Z,18.10
2018-07-27T05:38:40.112Z,18.20
2018-07-27T05:41:08.467Z,18.30
2018-07-27T05:43:37.034Z,18.40
2018-07-27T05:46:05.742Z,18.60
2018-07-27T05:48:34.099Z,18.60
2018-07-27T05:51:02.347Z,18.70
2018-07-27T05:53:30.771Z,18.70
2018-07-27T05:55:59.066Z,18.70
2018-07-27T05:58:27.359Z,18.70
2018-07-27T06:00:55.665Z,18.80
2018-07-27T06:03:23.944Z,18.80
2018-07-27T06:05:52.227Z,18.90
2018-07-27T06:08:20.507Z,19.00
2018-07-27T06:10:48.754Z,19.00
2018-07-27T06:13:17.073Z,19.10
2018-07-27T06:15:45.348Z,19.20
2018-07-27T06:18:13.729Z,19.30
2018-07-27T06:20:41.980Z,19.70
2018-07-27T06:23:10.286Z,19.80
2018-07-27T06:25:38.651Z,20.10
2018-07-27T06:28:06.983Z,20.30
2018-07-27T06:30:35.247Z,20.50
2018-07-27T06:33:03.530Z,20.70
2018-07-27T06:35:31.778Z,20.80
2018-07-27T06:38:12.421Z,20.80
2018-07-27T06:40:40.705Z,20.90
2018-07-27T06:43:09.789Z,21.10
2018-07-27T06:45:38.782Z,21.30
2018-07-27T06:48:10.126Z,21.50
2018-07-27T06:50:39.513Z,21.80
2018-07-27T06:53:08.381Z,22.20
2018-07-27T06:55:36.608Z,22.40
2018-07-27T06:58:05.147Z,22.60
2018-07-27T07:00:33.388Z,22.80
2018-07-27T07:03:01.642Z,22.90
2018-07-27T07:05:29.901Z,23.10
2018-07-27T07:07:58.181Z,23.30
2018-07-27T07:10:26.469Z,23.40
2018-07-27T07:12:56.050Z,23.50
2018-07-27T07:15:25.133Z,23.70
2018-07-27T07:17:54.566Z,23.80
2018-07-27T07:20:23.542Z,24.00
2018-07-27T07:22:51.813Z,24.20
2018-07-27T07:25:20.177Z,24.50
2018-07-27T07:27:48.361Z,24.70
2018-07-27T07:30:16.632Z,25.10
2018-07-27T07:32:44.905Z,25.70
2018-07-27T07:35:13.189Z,27.10
2018-07-27T07:37:41.461Z,29.10
2018-07-27T07:40:10.445Z,30.50
2018-07-27T07:42:39.482Z,32.00
2018-07-27T07:45:10.774Z,33.50
2018-07-27T07:47:39.706Z,34.60
2018-07-27T07:50:08.475Z,36.30
2018-07-27T07:52:37.582Z,37.30
2018-07-27T07:55:06.030Z,38.00
2018-07-27T07:57:34.286Z,38.60
2018-07-27T08:00:02.588Z,39.40
2018-07-27T08:02:30.889Z,39.70
2018-07-27T08:04:59.185Z,39.60
2018-07-27T08:07:27.453Z,41.00
2018-07-27T08:09:55.740Z,40.50
2018-07-27T08:12:25.145Z,40.80
2018-07-27T08:17:43.989Z,39.90
2018-07-27T08:20:12.268Z,39.30
2018-07-27T08:22:40.582Z,38.50
2018-07-27T08:25:09.595Z,39.40
2018-07-27T08:27:38.396Z,39.90
2018-07-27T08:30:06.693Z,39.90
2018-07-27T08:32:34.969Z,40.50
2018-07-27T08:35:03.745Z,41.00
2018-07-27T08:37:32.234Z,40.80
2018-07-27T08:40:01.642Z,41.20
2018-07-27T08:42:29.969Z,41.70
2018-07-27T08:44:58.485Z,43.40
2018-07-27T08:47:34.975Z,43.70
2018-07-27T08:50:04.406Z,42.80
2018-07-27T08:52:32.717Z,41.90
2018-07-27T08:55:01.054Z,42.50
2018-07-27T08:57:29.896Z,43.50
2018-07-27T08:59:58.168Z,44.20
2018-07-27T09:02:26.465Z,42.50
2018-07-27T09:04:55.798Z,43.40
2018-07-27T09:07:24.729Z,44.40
2018-07-27T09:09:54.774Z,44.40
2018-07-27T09:12:23.402Z,43.90
2018-07-27T09:14:51.768Z,43.10
2018-07-27T09:17:21.185Z,42.90
2018-07-27T09:19:49.433Z,43.50
2018-07-27T09:22:17.696Z,45.10
2018-07-27T09:24:46.141Z,45.00
2018-07-27T09:27:14.515Z,44.60
2018-07-27T09:29:43.479Z,44.30
2018-07-27T09:32:12.161Z,44.60
2018-07-27T09:34:40.418Z,44.10
2018-07-27T09:37:09.437Z,44.80
2018-07-27T09:39:38.576Z,45.00
2018-07-27T09:42:08.220Z,44.50
2018-07-27T09:44:38.444Z,45.10
2018-07-27T09:47:08.074Z,45.50
2018-07-27T09:49:36.752Z,45.80
2018-07-27T09:52:05.496Z,45.80
2018-07-27T09:54:34.310Z,43.30
2018-07-27T09:57:03.667Z,42.90
2018-07-27T09:59:32.408Z,42.30
2018-07-27T10:02:01.293Z,42.50
2018-07-27T10:04:30.044Z,43.20
2018-07-27T10:07:00.446Z,44.60
2018-07-27T10:09:29.179Z,45.50
2018-07-27T10:11:58.176Z,45.50
2018-07-27T10:14:26.914Z,42.80
2018-07-27T10:16:56.747Z,43.10
2018-07-27T10:19:26.489Z,43.30
2018-07-27T10:21:55.780Z,43.10
2018-07-27T10:24:27.053Z,43.00
2018-07-27T10:26:56.287Z,41.20
2018-07-27T10:29:25.722Z,39.00
2018-07-27T10:31:54.667Z,37.80
2018-07-27T10:34:23.765Z,37.80
2018-07-27T10:36:52.042Z,37.80
2018-07-27T10:39:20.365Z,38.80
2018-07-27T10:41:48.855Z,38.70
2018-07-27T10:44:18.468Z,40.00
2018-07-27T10:46:47.144Z,40.90
2018-07-27T10:51:45.066Z,40.50
2018-07-27T10:54:13.313Z,39.50
2018-07-27T10:56:41.618Z,39.60
2018-07-27T10:59:10.187Z,40.00
2018-07-27T11:01:40.341Z,40.10
2018-07-27T11:04:09.184Z,39.30
2018-07-27T11:06:39.170Z,38.10
2018-07-27T11:09:10.676Z,36.80
2018-07-27T11:11:40.506Z,35.70
2018-07-27T11:14:11.242Z,35.10
2018-07-27T11:16:40.413Z,34.60
2018-07-27T11:19:09.480Z,34.20
2018-07-27T11:21:38.647Z,33.80
2018-07-27T11:24:08.428Z,33.30
2018-07-27T11:26:36.732Z,33.10
2018-07-27T11:29:04.968Z,32.60
2018-07-27T11:31:33.213Z,32.30
2018-07-27T11:34:01.581Z,31.90
2018-07-27T11:36:29.845Z,32.00
2018-07-27T11:38:58.121Z,31.90
2018-07-27T11:41:26.494Z,31.70
2018-07-27T11:43:55.828Z,31.40
2018-07-27T11:46:25.262Z,31.30
2018-07-27T11:48:55.533Z,31.00
2018-07-27T11:51:25.396Z,31.10
2018-07-27T11:53:55.244Z,31.00
2018-07-27T11:56:24.002Z,30.90
2018-07-27T11:58:53.819Z,31.00
2018-07-27T12:01:22.352Z,31.10
2018-07-27T12:03:51.161Z,31.30
2018-07-27T12:06:20.372Z,31.30
2018-07-27T12:08:48.853Z,31.60
2018-07-27T12:11:17.128Z,31.90
2018-07-27T12:13:45.424Z,32.00
2018-07-27T12:16:14.157Z,32.10
2018-07-27T12:18:51.573Z,32.10
2018-07-27T12:21:19.986Z,32.20
2018-07-27T12:23:48.584Z,32.50
2018-07-27T12:26:16.902Z,32.60
2018-07-27T12:28:46.064Z,32.90
2018-07-27T12:31:14.942Z,33.40
2018-07-27T12:33:43.953Z,34.00
2018-07-27T12:36:12.997Z,34.60
2018-07-27T12:38:41.304Z,35.50
2018-07-27T12:41:10.425Z,35.70
2018-07-27T12:46:08.794Z,34.70
2018-07-27T12:48:38.852Z,34.10
2018-07-27T12:51:07.860Z,34.20
2018-07-27T12:53:36.651Z,34.20
2018-07-27T12:56:05.501Z,34.20
2018-07-27T12:58:34.186Z,33.90
2018-07-27T13:01:04.906Z,33.60
2018-07-27T13:03:33.169Z,33.30
2018-07-27T13:06:01.779Z,33.40
2018-07-27T13:08:30.769Z,33.40
2018-07-27T13:10:59.177Z,33.10
2018-07-27T13:13:27.501Z,33.30
2018-07-27T13:15:56.268Z,33.70
2018-07-27T13:18:26.408Z,34.10
2018-07-27T13:20:56.872Z,33.50
2018-07-27T13:23:27.021Z,33.00
2018-07-27T13:28:44.957Z,31.80
2018-07-27T13:31:14.849Z,30.70
2018-07-27T13:34:01.526Z,29.80
2018-07-27T13:36:30.475Z,29.30
2018-07-27T13:38:59.490Z,28.90
2018-07-27T13:41:28.609Z,28.70
2018-07-27T13:44:10.700Z,28.60
2018-07-27T13:46:39.806Z,28.40
2018-07-27T13:49:08.183Z,28.60
2018-07-27T13:51:36.507Z,28.60
2018-07-27T13:54:06.122Z,28.60
2018-07-27T13:56:34.541Z,28.60
2018-07-27T13:59:02.814Z,28.50
2018-07-27T14:01:31.090Z,28.50
2018-07-27T14:06:28.292Z,28.30
2018-07-27T14:08:56.968Z,28.30
2018-07-27T14:11:27.246Z,28.40
2018-07-27T14:13:56.495Z,28.40
2018-07-27T14:17:12.933Z,28.60
2018-07-27T14:19:41.461Z,28.60
2018-07-27T14:24:39.426Z,28.90
2018-07-27T14:27:08.553Z,29.10
2018-07-27T14:29:36.840Z,29.30
2018-07-27T14:34:56.395Z,29.50
2018-07-27T14:37:25.657Z,29.50
2018-07-27T14:39:55.569Z,29.40
2018-07-27T14:42:25.381Z,29.30
2018-07-27T14:44:54.477Z,29.30
2018-07-27T14:49:51.553Z,29.60
2018-07-27T14:52:19.889Z,29.60
2018-07-27T14:54:48.147Z,29.40
2018-07-27T14:57:16.457Z,29.40
2018-07-27T14:59:44.771Z,29.50
2018-07-27T15:02:13.304Z,29.50
2018-07-27T15:04:41.979Z,29.30
2018-07-27T15:07:11.591Z,29.20
2018-07-27T15:09:41.326Z,29.20
2018-07-27T15:12:11.281Z,29.20
2018-07-27T15:14:41.290Z,29.30
2018-07-27T15:17:10.886Z,29.40
2018-07-27T15:19:39.229Z,29.50
2018-07-27T15:22:08.222Z,29.60
2018-07-27T15:24:36.718Z,29.60
2018-07-27T15:27:05.302Z,29.60
2018-07-27T15:29:34.404Z,29.60
2018-07-27T15:32:03.490Z,29.60
2018-07-27T15:34:31.765Z,29.80
2018-07-27T15:37:00.620Z,29.80
2018-07-27T15:39:29.623Z,29.80
2018-07-27T15:41:58.594Z,29.70
2018-07-27T15:44:27.862Z,29.50
2018-07-27T15:46:56.740Z,29.50
2018-07-27T15:49:27.133Z,29.40
2018-07-27T15:51:56.583Z,29.20
2018-07-27T15:57:17.012Z,29.10
2018-07-27T15:59:46.020Z,29.10
2018-07-27T16:02:14.972Z,29.10
2018-07-27T16:04:43.674Z,29.20
2018-07-27T16:07:12.317Z,29.20
2018-07-27T16:09:42.074Z,29.20
2018-07-27T16:12:10.406Z,29.30
2018-07-27T16:14:39.433Z,29.40
2018-07-27T16:17:08.419Z,29.40
2018-07-27T16:19:37.468Z,29.60
2018-07-27T16:22:06.499Z,29.80
2018-07-27T16:24:35.585Z,30.00
2018-07-27T16:27:04.402Z,30.20
2018-07-27T16:29:33.552Z,30.40
2018-07-27T16:32:02.455Z,30.40
2018-07-27T16:34:31.562Z,30.40
2018-07-27T16:37:00.522Z,30.20
2018-07-27T16:39:29.267Z,30.10
2018-07-27T16:41:58.589Z,29.90
2018-07-27T16:44:27.424Z,29.80
2018-07-27T16:46:56.323Z,29.70
2018-07-27T16:49:25.239Z,29.60
2018-07-27T16:51:54.155Z,29.50
2018-07-27T16:54:23.442Z,29.50
2018-07-27T16:56:52.441Z,29.50
2018-07-27T16:59:21.457Z,29.50
2018-07-27T17:01:50.674Z,29.40
2018-07-27T17:04:19.860Z,29.40
2018-07-27T17:06:48.906Z,29.30
2018-07-27T17:09:17.720Z,29.20
2018-07-27T17:11:46.671Z,29.10
2018-07-27T17:16:44.260Z,28.90
2018-07-27T17:19:13.495Z,28.70
2018-07-27T17:21:44.152Z,28.60
2018-07-27T17:24:12.575Z,28.40
2018-07-27T17:26:41.428Z,28.30
2018-07-27T17:29:10.716Z,28.20
2018-07-27T17:31:39.797Z,28.10
2018-07-27T17:34:08.976Z,28.00
2018-07-27T17:36:37.943Z,27.90
2018-07-27T17:44:27.269Z,27.70
2018-07-27T17:46:55.649Z,27.70
2018-07-27T17:49:24.244Z,27.70
2018-07-27T17:51:52.524Z,27.70
2018-07-27T17:54:20.808Z,27.70
2018-07-27T17:56:57.734Z,27.70
2018-07-27T17:59:26.107Z,27.70
2018-07-27T18:01:54.382Z,27.60
2018-07-27T18:04:22.724Z,27.70
2018-07-27T18:06:51.007Z,27.60
2018-07-27T18:09:19.262Z,27.60
2018-07-27T18:11:47.559Z,27.50
2018-07-27T18:14:15.978Z,27.30
2018-07-27T18:16:44.232Z,27.30
2018-07-27T18:19:12.500Z,27.20
2018-07-27T18:21:40.816Z,27.10
2018-07-27T18:24:09.207Z,27.00
2018-07-27T18:26:37.720Z,26.90
2018-07-27T18:29:06.094Z,26.70
2018-07-27T18:31:34.390Z,26.70
2018-07-27T18:34:02.750Z,26.70
2018-07-27T18:36:31.127Z,26.60
2018-07-27T18:38:59.446Z,26.50
2018-07-27T18:41:28.075Z,26.30
2018-07-27T18:43:56.519Z,26.30
2018-07-27T18:46:24.974Z,26.10
2018-07-27T18:48:53.504Z,26.00
2018-07-27T18:51:21.865Z,25.90
2018-07-27T18:53:50.994Z,25.80
2018-07-27T18:56:20.046Z,25.60
2018-07-27T18:58:48.410Z,25.40
2018-07-27T19:01:16.886Z,25.20
2018-07-27T19:03:45.924Z,25.00
2018-07-27T19:06:14.868Z,24.80
2018-07-27T19:08:43.669Z,24.60
2018-07-27T19:11:12.857Z,24.50
2018-07-27T19:16:11.142Z,24.20
2018-07-27T19:18:40.208Z,24.10
2018-07-27T19:21:09.605Z,24.00
2018-07-27T19:23:38.876Z,23.90
2018-07-27T19:26:07.586Z,23.90
2018-07-27T19:28:36.600Z,23.80
2018-07-27T19:31:05.508Z,23.70
2018-07-27T19:33:34.478Z,23.70
2018-07-27T19:36:03.580Z,23.70
2018-07-27T19:38:32.497Z,23.60
2018-07-27T19:41:01.565Z,23.50
2018-07-27T19:43:30.512Z,23.50
2018-07-27T19:45:59.567Z,23.40
2018-07-27T19:50:57.523Z,23.30
2018-07-27T19:53:26.259Z,23.30
2018-07-27T19:55:55.737Z,23.10
2018-07-27T19:58:24.611Z,23.10
2018-07-27T20:03:44.629Z,23.00
2018-07-27T20:06:13.564Z,22.90
2018-07-27T20:08:41.903Z,22.80
2018-07-27T20:11:10.360Z,22.80
2018-07-27T20:13:38.807Z,22.70
2018-07-27T20:16:07.083Z,22.60
2018-07-27T20:18:35.453Z,22.60
2018-07-27T20:21:03.864Z,22.50
2018-07-27T20:23:32.150Z,22.40
2018-07-27T20:26:00.583Z,22.50
2018-07-27T20:28:29.014Z,22.40
2018-07-27T20:30:57.362Z,22.30
2018-07-27T20:33:25.655Z,22.20
2018-07-27T20:35:53.958Z,22.10
2018-07-27T20:38:22.259Z,22.00
2018-07-27T20:40:50.700Z,21.90
2018-07-27T20:43:19.007Z,21.80
2018-07-27T20:45:47.285Z,21.70
2018-07-27T20:48:15.687Z,21.60
2018-07-27T20:50:44.023Z,21.50
2018-07-27T20:53:12.430Z,21.40
2018-07-27T20:55:40.758Z,21.30
2018-07-27T20:58:09.049Z,21.20
2018-07-27T21:00:37.302Z,21.10
2018-07-27T21:03:05.632Z,21.00
2018-07-27T21:05:33.898Z,21.00
2018-07-27T21:08:02.182Z,21.00
2018-07-27T21:12:58.499Z,20.80
2018-07-27T21:15:26.807Z,20.70
2018-07-27T21:17:55.196Z,20.60
2018-07-27T21:22:51.648Z,20.50
2018-07-27T21:25:19.926Z,20.40
2018-07-27T21:27:48.259Z,20.40
2018-07-27T21:30:16.591Z,20.30
2018-07-27T21:33:04.948Z,20.20
2018-07-27T21:35:33.223Z,20.10
2018-07-27T21:38:01.518Z,20.10
2018-07-27T21:40:29.792Z,20.00
2018-07-27T21:42:58.063Z,20.00
2018-07-27T21:45:26.361Z,20.00
2018-07-27T21:47:54.690Z,19.90
2018-07-27T21:50:22.970Z,19.90
2018-07-27T21:52:51.372Z,19.80
2018-07-27T21:55:19.752Z,19.80
2018-07-27T21:57:48.099Z,19.80
2018-07-27T22:00:16.365Z,19.80
2018-07-27T22:02:44.672Z,19.80
2018-07-27T22:05:12.949Z,19.80
2018-07-27T22:07:41.296Z,19.80
2018-07-27T22:12:56.146Z,19.70
2018-07-27T22:15:25.390Z,19.60
2018-07-27T22:20:44.622Z,19.50
2018-07-27T22:23:12.909Z,19.40
2018-07-27T22:25:41.185Z,19.30
2018-07-27T22:28:09.505Z,19.40
2018-07-27T22:30:37.790Z,19.30
2018-07-27T22:33:06.106Z,19.40
2018-07-27T22:35:34.454Z,19.40
2018-07-27T22:38:02.746Z,19.30
2018-07-27T22:40:31.086Z,19.20
2018-07-27T22:42:59.321Z,19.10
2018-07-27T22:45:27.606Z,19.00
2018-07-27T22:47:55.974Z,19.00
2018-07-27T22:50:24.230Z,19.00
2018-07-27T22:52:52.530Z,19.00
2018-07-27T22:55:20.870Z,19.00
2018-07-27T22:57:49.141Z,18.90
2018-07-27T23:00:17.507Z,18.80
2018-07-27T23:02:45.950Z,18.80
2018-07-27T23:05:14.210Z,18.70
2018-07-27T23:07:42.477Z,18.60
2018-07-27T23:10:11.264Z,18.60
2018-07-27T23:12:39.982Z,18.60
2018-07-27T23:15:09.794Z,18.50
2018-07-27T23:17:38.122Z,18.50
2018-07-27T23:20:09.286Z,18.40
2018-07-27T23:22:37.592Z,18.40
2018-07-27T23:25:06.329Z,18.40
2018-07-27T23:27:39.450Z,18.20
2018-07-27T23:30:09.934Z,18.20
2018-07-27T23:32:38.258Z,18.30
2018-07-27T23:35:06.593Z,18.20
2018-07-27T23:37:34.976Z,18.20
2018-07-27T23:40:03.304Z,18.10
2018-07-27T23:42:31.622Z,18.00
2018-07-27T23:44:59.927Z,18.00
2018-07-27T23:47:28.259Z,18.00
2018-07-27T23:50:14.707Z,18.10
2018-07-27T23:52:43.035Z,18.00
2018-07-27T23:55:11.310Z,18.00
2018-07-27T23:57:39.738Z,17.90
